Time;durP1;ratioP1;P1;durP2;ratioP2;P2;SDS_P1;SDS_P2;PMS_P1;PMS_P2;Temp;Humidity;BMP_temperature;BMP_pressure;BME280_temperature;BME280_humidity;BME280_pressure;Samples;Min_cycle;Max_cycle;Signal;HPM_P1;HPM_P2
2023/04/01 00:00:03;;;;;;;1.02;0.20;;;9.30;99.90;;;;;;5111891;28;20435;-58
2023/04/01 00:02:30;;;;;;;0.90;0.20;;;9.20;99.90;;;;;;5114234;28;20428;-60
2023/04/01 00:04:58;;;;;;;0.52;0.10;;;9.30;99.90;;;;;;5113037;28;20855;-59
2023/04/01 00:07:25;;;;;;;0.50;0.20;;;9.40;99.90;;;;;;5112270;28;20435;-58
2023/04/01 00:09:52;;;;;;;0.40;0.10;;;9.30;99.90;;;;;;5111851;28;20728;-59
2023/04/01 00:12:20;;;;;;;0.52;0.20;;;9.30;99.90;;;;;;5112153;28;20439;-59
2023/04/01 00:14:47;;;;;;;0.70;0.10;;;9.30;99.90;;;;;;5112060;28;20443;-59
2023/04/01 00:17:15;;;;;;;0.50;0.20;;;9.20;99.90;;;;;;5111962;28;20427;-59
2023/04/01 00:19:42;;;;;;;0.40;0.10;;;9.30;99.90;;;;;;5112696;28;20522;-58
2023/04/01 00:22:11;;;;;;;0.70;0.30;;;9.30;99.90;;;;;;5114752;28;20439;-59
2023/04/01 00:24:38;;;;;;;0.90;0.20;;;9.30;99.90;;;;;;5115196;28;20439;-59
2023/04/01 00:27:07;;;;;;;0.65;0.20;;;9.30;99.90;;;;;;5114915;28;20412;-59
2023/04/01 00:29:34;;;;;;;0.88;0.20;;;9.30;99.90;;;;;;5115056;28;20416;-59
2023/04/01 00:32:01;;;;;;;0.57;0.20;;;9.30;99.90;;;;;;5114561;28;20408;-59
2023/04/01 00:34:30;;;;;;;0.90;0.20;;;9.30;99.90;;;;;;5114593;28;20408;-60
2023/04/01 00:36:57;;;;;;;0.70;0.20;;;9.30;99.90;;;;;;5114784;28;20434;-59
2023/04/01 00:39:24;;;;;;;0.60;0.20;;;9.30;99.90;;;;;;5114293;28;20419;-59
2023/04/01 00:41:51;;;;;;;0.40;0.20;;;9.30;99.90;;;;;;5114547;28;20417;-59
2023/04/01 00:44:21;;;;;;;0.40;0.10;;;9.40;99.90;;;;;;5114913;28;20428;-58
2023/04/01 00:46:48;;;;;;;0.50;0.10;;;9.40;99.90;;;;;;5114979;28;20797;-57
2023/04/01 00:49:18;;;;;;;0.50;0.13;;;9.40;99.90;;;;;;5115137;28;20420;-57
2023/04/01 00:51:51;;;;;;;0.80;0.20;;;9.40;99.90;;;;;;5113980;28;20416;-58
2023/04/01 00:54:20;;;;;;;0.40;0.10;;;9.40;99.90;;;;;;5114964;28;20493;-57
2023/04/01 00:56:55;;;;;;;1.23;0.20;;;9.30;99.90;;;;;;5113944;28;20824;-57
2023/04/01 00:59:25;;;;;;;0.70;0.30;;;9.30;99.90;;;;;;5114450;28;20507;-59
2023/04/01 01:01:52;;;;;;;0.60;0.20;;;9.30;99.90;;;;;;5113578;28;20732;-56
2023/04/01 01:04:27;;;;;;;0.55;0.20;;;9.30;99.90;;;;;;5114292;28;20439;-57
2023/04/01 01:07:08;;;;;;;0.30;0.10;;;9.40;99.90;;;;;;5114636;28;20448;-57
2023/04/01 01:09:44;;;;;;;0.50;0.20;;;9.40;99.90;;;;;;5114898;28;20402;-58
2023/04/01 01:12:16;;;;;;;1.37;0.20;;;9.40;99.90;;;;;;5118600;28;20418;-56
2023/04/01 01:14:55;;;;;;;0.50;0.20;;;9.40;99.90;;;;;;5118421;28;20828;-58
2023/04/01 01:17:33;;;;;;;0.70;0.20;;;9.40;99.90;;;;;;5117719;28;20428;-58
2023/04/01 01:20:33;;;;;;;0.50;0.20;;;9.40;99.90;;;;;;5118056;28;20472;-55
2023/04/01 01:23:33;;;;;;;0.70;0.20;;;9.40;99.90;;;;;;5118232;28;20424;-57
2023/04/01 01:26:15;;;;;;;0.50;0.20;;;9.30;99.90;;;;;;5117273;28;20428;-56
2023/04/01 01:28:58;;;;;;;0.80;0.20;;;9.30;99.90;;;;;;5116909;28;20522;-57
2023/04/01 01:31:35;;;;;;;2.20;0.20;;;9.30;99.90;;;;;;5116226;28;20420;-58
2023/04/01 01:34:16;;;;;;;0.93;0.10;;;9.20;99.90;;;;;;5116237;28;20424;-57
2023/04/01 01:36:46;;;;;;;0.40;0.20;;;9.20;99.90;;;;;;5117422;28;20412;-56
2023/04/01 01:39:14;;;;;;;0.98;0.25;;;9.20;99.90;;;;;;5117422;28;20420;-57
2023/04/01 01:41:46;;;;;;;1.00;0.20;;;9.30;99.90;;;;;;5117125;28;20412;-56
2023/04/01 01:44:16;;;;;;;1.10;0.20;;;9.30;99.90;;;;;;5117411;28;20439;-57
2023/04/01 01:46:46;;;;;;;0.30;0.10;;;9.20;99.90;;;;;;5116296;28;20408;-57
2023/04/01 01:49:15;;;;;;;1.10;0.20;;;9.20;99.90;;;;;;5117461;28;20424;-57
2023/04/01 01:51:42;;;;;;;1.10;0.20;;;9.20;99.90;;;;;;5116893;28;20452;-57
2023/04/01 01:54:15;;;;;;;0.55;0.20;;;9.10;99.90;;;;;;5116987;28;20420;-54
2023/04/01 01:56:44;;;;;;;0.60;0.20;;;9.10;99.90;;;;;;5117382;28;20406;-57
2023/04/01 01:59:15;;;;;;;0.50;0.20;;;9.20;99.90;;;;;;5117524;28;20442;-56
2023/04/01 02:01:46;;;;;;;0.50;0.20;;;9.20;99.90;;;;;;5115474;28;20688;-57
2023/04/01 02:04:15;;;;;;;0.70;0.20;;;9.10;99.90;;;;;;5116789;28;20453;-58
2023/04/01 02:06:47;;;;;;;0.40;0.20;;;9.10;99.90;;;;;;5117364;28;20460;-59
2023/04/01 02:09:15;;;;;;;1.30;0.20;;;9.10;99.90;;;;;;5117110;28;20432;-57
2023/04/01 02:11:47;;;;;;;0.75;0.20;;;9.00;99.90;;;;;;5116577;28;20419;-57
2023/04/01 02:14:16;;;;;;;0.40;0.20;;;9.00;99.90;;;;;;5115255;28;20423;-58
2023/04/01 02:16:50;;;;;;;0.50;0.20;;;9.00;99.90;;;;;;5114375;28;20426;-59
2023/04/01 02:19:22;;;;;;;0.60;0.20;;;9.00;99.90;;;;;;5115714;28;20431;-59
2023/04/01 02:21:51;;;;;;;1.17;0.13;;;9.10;99.90;;;;;;5115114;28;20427;-59
2023/04/01 02:24:22;;;;;;;0.55;0.20;;;9.10;99.90;;;;;;5114962;28;20428;-56
2023/04/01 02:26:51;;;;;;;0.45;0.20;;;9.10;99.90;;;;;;5115351;28;20425;-58
2023/04/01 02:29:20;;;;;;;0.50;0.20;;;9.00;99.90;;;;;;5115865;28;20428;-58
2023/04/01 02:31:48;;;;;;;0.30;0.10;;;9.00;99.90;;;;;;5116801;28;20496;-56
2023/04/01 02:34:15;;;;;;;0.40;0.20;;;9.00;99.90;;;;;;5117140;28;20427;-58
2023/04/01 02:36:43;;;;;;;0.50;0.20;;;9.00;99.90;;;;;;5116452;28;20423;-58
2023/04/01 02:39:10;;;;;;;0.40;0.10;;;9.10;99.90;;;;;;5108898;28;20434;-59
2023/04/01 02:41:42;;;;;;;0.50;0.20;;;9.10;99.90;;;;;;5099087;28;20414;-57
2023/04/01 02:44:10;;;;;;;0.40;0.20;;;9.20;99.90;;;;;;5096199;28;20432;-58
2023/04/01 02:46:38;;;;;;;0.40;0.20;;;9.20;99.90;;;;;;5096096;28;20429;-59
2023/04/01 02:49:05;;;;;;;0.60;0.20;;;9.10;99.90;;;;;;5095640;28;20422;-58
2023/04/01 02:51:32;;;;;;;0.47;0.10;;;9.10;99.90;;;;;;5095505;28;20450;-58
2023/04/01 02:53:59;;;;;;;0.70;0.10;;;9.10;99.90;;;;;;5095982;28;20849;-59
2023/04/01 02:56:26;;;;;;;0.77;0.30;;;9.10;99.90;;;;;;5095176;28;20812;-59
2023/04/01 02:58:55;;;;;;;0.40;0.10;;;9.00;99.90;;;;;;5104300;28;20420;-58
2023/04/01 03:01:23;;;;;;;0.30;0.10;;;9.00;99.90;;;;;;5115904;28;20423;-59
2023/04/01 03:03:50;;;;;;;0.50;0.20;;;9.20;99.90;;;;;;5116241;28;20839;-57
2023/04/01 03:06:18;;;;;;;0.30;0.10;;;9.00;99.90;;;;;;5115347;28;20493;-56
2023/04/01 03:08:45;;;;;;;0.50;0.15;;;9.00;99.90;;;;;;5115807;28;20522;-56
2023/04/01 03:11:13;;;;;;;0.50;0.20;;;8.90;99.90;;;;;;5115234;28;20416;-57
2023/04/01 03:13:40;;;;;;;0.40;0.10;;;8.90;99.90;;;;;;5116004;28;20835;-56
2023/04/01 03:16:08;;;;;;;0.30;0.10;;;9.00;99.90;;;;;;5115586;28;20503;-57
2023/04/01 03:18:35;;;;;;;0.82;0.20;;;9.00;99.90;;;;;;5116033;28;20836;-58
2023/04/01 03:21:15;;;;;;;1.30;0.20;;;9.00;99.90;;;;;;5115824;28;20698;-57
2023/04/01 03:23:42;;;;;;;0.30;0.10;;;9.00;99.90;;;;;;5114528;28;20428;-57
2023/04/01 03:26:09;;;;;;;0.30;0.10;;;9.00;99.90;;;;;;5115243;28;20428;-59
2023/04/01 03:28:36;;;;;;;0.85;0.20;;;9.00;99.90;;;;;;5114233;28;20432;-56
2023/04/01 03:31:04;;;;;;;0.60;0.20;;;8.90;99.90;;;;;;5114444;28;20489;-58
2023/04/01 03:33:33;;;;;;;0.30;0.10;;;8.90;99.90;;;;;;5114986;28;20428;-57
2023/04/01 03:36:00;;;;;;;0.40;0.10;;;8.80;99.90;;;;;;5114303;28;20526;-58
2023/04/01 03:38:28;;;;;;;0.33;0.10;;;8.90;99.90;;;;;;5115486;28;20428;-57
2023/04/01 03:40:55;;;;;;;0.40;0.10;;;8.80;99.90;;;;;;5114954;28;20426;-58
2023/04/01 03:43:22;;;;;;;0.40;0.10;;;8.80;99.90;;;;;;5113904;28;20438;-58
2023/04/01 03:45:51;;;;;;;0.30;0.10;;;8.70;99.90;;;;;;5114501;28;20438;-58
2023/04/01 03:48:19;;;;;;;0.40;0.10;;;8.70;99.90;;;;;;5114312;28;20428;-57
2023/04/01 03:50:48;;;;;;;0.30;0.10;;;8.70;99.90;;;;;;5114817;28;20424;-58
2023/04/01 03:53:15;;;;;;;0.68;0.10;;;8.90;99.90;;;;;;5115756;28;20424;-58
2023/04/01 03:55:42;;;;;;;0.30;0.10;;;9.00;99.90;;;;;;5114885;28;21123;-58
2023/04/01 03:58:10;;;;;;;0.30;0.10;;;9.00;99.90;;;;;;5114474;28;20428;-58
2023/04/01 04:00:37;;;;;;;0.70;0.20;;;9.00;99.90;;;;;;5115535;28;20416;-58
2023/04/01 04:03:04;;;;;;;0.50;0.10;;;8.90;99.90;;;;;;5115964;28;20420;-58
2023/04/01 04:05:32;;;;;;;0.40;0.10;;;8.80;99.90;;;;;;5114701;28;20439;-59
2023/04/01 04:08:00;;;;;;;0.40;0.10;;;8.80;99.90;;;;;;5115212;28;20424;-58
2023/04/01 04:10:28;;;;;;;0.90;0.10;;;8.70;99.90;;;;;;5114130;28;20438;-62
2023/04/01 04:12:56;;;;;;;0.55;0.20;;;8.80;99.90;;;;;;5114742;28;20543;-58
2023/04/01 04:15:24;;;;;;;0.90;0.20;;;8.80;99.90;;;;;;5115270;28;20507;-59
2023/04/01 04:17:51;;;;;;;0.55;0.30;;;8.70;99.90;;;;;;5114025;28;20431;-59
2023/04/01 04:20:18;;;;;;;0.43;0.10;;;8.70;99.90;;;;;;5113589;28;20420;-58
2023/04/01 04:22:45;;;;;;;0.40;0.17;;;8.60;99.90;;;;;;5113900;28;20416;-58
2023/04/01 04:25:14;;;;;;;0.60;0.20;;;8.60;99.90;;;;;;5114774;28;20428;-57
2023/04/01 04:27:41;;;;;;;1.25;0.20;;;8.60;99.90;;;;;;5114625;28;20417;-58
2023/04/01 04:30:09;;;;;;;0.33;0.10;;;8.60;99.90;;;;;;5114533;28;20434;-58
2023/04/01 04:32:37;;;;;;;0.63;0.10;;;8.50;99.90;;;;;;5114701;28;20424;-57
2023/04/01 04:35:06;;;;;;;0.40;0.20;;;8.50;99.90;;;;;;5107128;28;20924;-57
2023/04/01 04:37:33;;;;;;;0.40;0.10;;;8.50;99.90;;;;;;5093765;28;20434;-57
2023/04/01 04:40:00;;;;;;;0.38;0.10;;;8.50;99.90;;;;;;5092548;28;20422;-58
2023/04/01 04:42:28;;;;;;;0.85;0.20;;;8.50;99.90;;;;;;5094275;28;20429;-59
2023/04/01 04:44:55;;;;;;;0.30;0.10;;;8.30;99.90;;;;;;5096355;28;20422;-58
2023/04/01 04:47:22;;;;;;;0.60;0.15;;;8.30;99.90;;;;;;5098270;28;20433;-56
2023/04/01 04:49:50;;;;;;;0.60;0.10;;;8.30;99.90;;;;;;5096613;28;20422;-57
2023/04/01 04:52:17;;;;;;;0.50;0.20;;;8.20;99.90;;;;;;5097230;28;20453;-54
2023/04/01 04:54:44;;;;;;;0.30;0.10;;;8.20;99.90;;;;;;5097171;28;20417;-58
2023/04/01 04:57:11;;;;;;;0.30;0.10;;;8.40;99.90;;;;;;5108244;28;20522;-58
2023/04/01 04:59:39;;;;;;;0.43;0.10;;;8.50;99.90;;;;;;5103127;28;20483;-58
2023/04/01 05:02:07;;;;;;;0.50;0.10;;;8.40;99.90;;;;;;5097820;28;20429;-58
2023/04/01 05:04:36;;;;;;;0.90;0.10;;;8.30;99.90;;;;;;5097903;28;20825;-58
2023/04/01 05:07:03;;;;;;;0.85;0.10;;;8.30;99.90;;;;;;5096828;28;20818;-57
2023/04/01 05:09:31;;;;;;;0.70;0.20;;;8.20;99.90;;;;;;5097553;28;20429;-57
2023/04/01 05:11:58;;;;;;;0.80;0.20;;;8.30;99.90;;;;;;5096964;28;20437;-58
2023/04/01 05:14:25;;;;;;;0.40;0.10;;;8.20;99.90;;;;;;5096870;28;20433;-58
2023/04/01 05:16:54;;;;;;;1.00;0.30;;;8.30;99.90;;;;;;5097001;28;20418;-59
2023/04/01 05:19:21;;;;;;;0.50;0.20;;;8.20;99.90;;;;;;5096055;28;20426;-59
2023/04/01 05:21:48;;;;;;;0.45;0.10;;;8.20;99.90;;;;;;5096676;28;20430;-59
2023/04/01 05:24:15;;;;;;;1.40;0.10;;;8.20;99.90;;;;;;5096574;28;20433;-59
2023/04/01 05:26:42;;;;;;;0.70;0.10;;;8.30;99.90;;;;;;5096843;28;20486;-59
2023/04/01 05:29:10;;;;;;;0.30;0.10;;;8.40;99.90;;;;;;5108220;28;20416;-59
2023/04/01 05:31:38;;;;;;;0.40;0.10;;;8.40;99.90;;;;;;5117901;28;20424;-59
2023/04/01 05:34:06;;;;;;;0.40;0.10;;;8.40;99.90;;;;;;5118218;28;20911;-59
2023/04/01 05:36:34;;;;;;;0.60;0.10;;;8.40;99.90;;;;;;5117851;28;20945;-60
2023/04/01 05:39:01;;;;;;;0.30;0.10;;;8.50;99.90;;;;;;5116629;28;20894;-59
2023/04/01 05:41:28;;;;;;;0.80;0.15;;;8.50;99.90;;;;;;5117281;28;20778;-57
2023/04/01 05:43:55;;;;;;;0.80;0.10;;;8.70;99.90;;;;;;5115777;28;20833;-59
2023/04/01 05:46:22;;;;;;;1.40;0.20;;;8.80;99.90;;;;;;5096168;28;20475;-58
2023/04/01 05:48:49;;;;;;;0.57;0.20;;;8.80;99.90;;;;;;5097221;28;20413;-59
2023/04/01 05:51:18;;;;;;;0.40;0.10;;;8.90;99.90;;;;;;5095846;28;20457;-57
2023/04/01 05:53:45;;;;;;;1.30;0.20;;;8.90;99.90;;;;;;5096089;28;20414;-60
2023/04/01 05:56:12;;;;;;;0.40;0.20;;;9.00;99.90;;;;;;5093480;28;20449;-60
2023/04/01 05:58:40;;;;;;;0.30;0.10;;;9.10;99.90;;;;;;5101334;28;20420;-62
2023/04/01 06:01:09;;;;;;;0.70;0.10;;;9.20;99.90;;;;;;5099634;28;20434;-60
2023/04/01 06:03:36;;;;;;;0.40;0.10;;;9.40;99.90;;;;;;5096168;28;20441;-59
2023/04/01 06:06:04;;;;;;;0.60;0.17;;;9.60;99.90;;;;;;5094927;28;20430;-59
2023/04/01 06:08:33;;;;;;;0.50;0.20;;;9.60;99.90;;;;;;5105042;28;20489;-61
2023/04/01 06:11:14;;;;;;;0.30;0.10;;;9.60;99.90;;;;;;5096701;28;20426;-61
2023/04/01 06:14:00;;;;;;;1.00;0.20;;;9.60;99.90;;;;;;5098768;28;20422;-60
2023/04/01 06:16:39;;;;;;;0.90;0.20;;;9.70;99.90;;;;;;5107089;28;20428;-60
2023/04/01 06:19:23;;;;;;;1.25;0.28;;;9.80;99.90;;;;;;5105108;28;20816;-58
2023/04/01 06:22:34;;;;;;;0.50;0.20;;;9.70;99.90;;;;;;5102066;28;20859;-61
2023/04/01 06:25:29;;;;;;;0.50;0.10;;;9.80;99.90;;;;;;5090782;28;20429;-59
2023/04/01 06:28:17;;;;;;;0.70;0.10;;;9.80;99.90;;;;;;5095054;28;20756;-60
2023/04/01 06:30:48;;;;;;;0.80;0.13;;;9.80;99.90;;;;;;5094696;28;20437;-58
2023/04/01 06:33:29;;;;;;;0.75;0.10;;;9.80;99.90;;;;;;5115782;28;20447;-61
2023/04/01 06:36:28;;;;;;;0.80;0.10;;;9.90;99.90;;;;;;5114851;28;20416;-60
2023/04/01 06:39:12;;;;;;;0.80;0.20;;;9.90;99.90;;;;;;5107921;28;20908;-61
2023/04/01 06:42:16;;;;;;;0.40;0.10;;;9.80;99.90;;;;;;5094712;28;20856;-62
2023/04/01 06:44:51;;;;;;;0.40;0.10;;;9.80;99.90;;;;;;5095859;28;20422;-61
2023/04/01 06:47:30;;;;;;;0.40;0.10;;;9.80;99.90;;;;;;5095087;28;20430;-60
2023/04/01 06:50:05;;;;;;;0.40;0.10;;;9.80;99.90;;;;;;5095703;28;20418;-62
2023/04/01 06:52:46;;;;;;;0.60;0.10;;;10.00;99.90;;;;;;5094193;28;20694;-60
2023/04/01 06:55:28;;;;;;;0.68;0.10;;;10.00;99.90;;;;;;5102412;28;20411;-57
2023/04/01 06:57:59;;;;;;;1.80;0.20;;;10.00;99.90;;;;;;5111673;28;20459;-54
2023/04/01 07:00:30;;;;;;;0.40;0.10;;;10.00;99.90;;;;;;5095144;28;20433;-54
2023/04/01 07:03:07;;;;;;;1.00;0.50;;;10.00;99.90;;;;;;5095405;28;20780;-53
2023/04/01 07:05:35;;;;;;;1.00;0.20;;;10.00;99.90;;;;;;5104189;28;20412;-50
2023/04/01 07:08:06;;;;;;;0.30;0.10;;;10.10;99.90;;;;;;5095767;28;21025;-54
2023/04/01 07:10:42;;;;;;;0.50;0.10;;;10.10;99.90;;;;;;5098915;28;20773;-48
2023/04/01 07:13:16;;;;;;;0.30;0.10;;;10.00;99.90;;;;;;5112290;28;20432;-50
2023/04/01 07:15:47;;;;;;;1.50;0.10;;;10.30;99.90;;;;;;5110517;28;20503;-52
2023/04/01 07:18:23;;;;;;;0.50;0.10;;;10.40;99.90;;;;;;5099596;28;20426;-49
2023/04/01 07:20:51;;;;;;;0.30;0.10;;;10.60;99.90;;;;;;5095490;28;20439;-49
2023/04/01 07:23:24;;;;;;;0.30;0.10;;;10.60;99.90;;;;;;5093051;28;20429;-50
2023/04/01 07:25:56;;;;;;;1.20;0.10;;;10.40;99.90;;;;;;5097205;28;20425;-52
2023/04/01 07:28:25;;;;;;;0.50;0.10;;;10.30;99.90;;;;;;5097052;28;20725;-54
2023/04/01 07:31:05;;;;;;;0.40;0.10;;;10.40;99.90;;;;;;5092804;28;20414;-52
2023/04/01 07:33:40;;;;;;;1.05;0.10;;;10.50;99.90;;;;;;5096408;28;20434;-54
2023/04/01 07:36:15;;;;;;;0.50;0.10;;;10.40;99.90;;;;;;5094133;28;20837;-52
2023/04/01 07:38:57;;;;;;;1.08;0.20;;;10.40;99.90;;;;;;5103067;28;20422;-52
2023/04/01 07:41:32;;;;;;;0.57;0.10;;;10.30;99.90;;;;;;5094307;28;20444;-53
2023/04/01 07:44:11;;;;;;;0.40;0.13;;;10.50;99.90;;;;;;5097587;28;20437;-52
2023/04/01 07:46:57;;;;;;;0.55;0.10;;;10.30;99.90;;;;;;5090352;28;20430;-52
2023/04/01 07:49:33;;;;;;;1.70;0.10;;;10.30;99.90;;;;;;5090585;28;20437;-50
2023/04/01 07:52:07;;;;;;;0.50;0.20;;;10.30;99.90;;;;;;5091382;28;20432;-55
2023/04/01 07:54:41;;;;;;;0.40;0.10;;;10.40;99.90;;;;;;5092565;28;20425;-54
2023/04/01 07:57:13;;;;;;;0.40;0.20;;;10.40;99.90;;;;;;5094387;28;20428;-51
2023/04/01 07:59:51;;;;;;;0.50;0.10;;;10.30;99.90;;;;;;5100413;28;20867;-52
2023/04/01 08:02:32;;;;;;;0.40;0.10;;;10.40;99.90;;;;;;5093544;28;20437;-50
2023/04/01 08:05:10;;;;;;;0.30;0.10;;;10.40;99.90;;;;;;5092073;28;22519;-48
2023/04/01 08:07:48;;;;;;;0.30;0.10;;;10.60;99.90;;;;;;5101031;28;20433;-52
2023/04/01 08:10:23;;;;;;;1.10;0.20;;;10.80;99.90;;;;;;5095751;28;20827;-48
2023/04/01 08:13:00;;;;;;;0.70;0.10;;;10.80;99.90;;;;;;5102174;28;20740;-50
2023/04/01 08:15:35;;;;;;;0.80;0.10;;;10.80;99.90;;;;;;5093887;28;20482;-49
2023/04/01 08:18:10;;;;;;;1.10;0.10;;;10.80;99.90;;;;;;5105710;28;20462;-49
2023/04/01 08:20:43;;;;;;;0.40;0.10;;;10.80;99.90;;;;;;5116905;28;20819;-47
2023/04/01 08:23:16;;;;;;;0.93;0.10;;;10.90;99.90;;;;;;5101483;28;20431;-49
2023/04/01 08:25:49;;;;;;;0.47;0.20;;;10.80;99.90;;;;;;5104505;28;20417;-49
2023/04/01 08:28:22;;;;;;;0.60;0.10;;;10.90;99.90;;;;;;5102393;28;20435;-50
2023/04/01 08:30:54;;;;;;;0.60;0.20;;;10.90;99.90;;;;;;5099434;28;20433;-53
2023/04/01 08:33:26;;;;;;;0.50;0.10;;;10.90;99.90;;;;;;5102643;28;20854;-48
2023/04/01 08:35:58;;;;;;;0.70;0.10;;;10.70;99.90;;;;;;5099356;28;20797;-51
2023/04/01 08:38:31;;;;;;;0.40;0.10;;;10.70;99.90;;;;;;5104381;28;20429;-50
2023/04/01 08:41:36;;;;;;;0.38;0.10;;;10.70;99.90;;;;;;5098570;28;20460;-51
2023/04/01 08:44:26;;;;;;;0.30;0.10;;;10.80;99.90;;;;;;5021191;28;20951;-47
2023/04/01 08:47:25;;;;;;;0.30;0.10;;;10.60;99.90;;;;;;5014168;28;20892;-47
2023/04/01 08:50:23;;;;;;;1.20;0.10;;;10.60;99.90;;;;;;5097579;28;20428;-47
2023/04/01 08:53:01;;;;;;;0.30;0.10;;;10.50;99.90;;;;;;5109300;28;20714;-52
2023/04/01 08:55:51;;;;;;;0.50;0.20;;;10.30;99.90;;;;;;5097586;28;20483;-50
2023/04/01 08:58:46;;;;;;;0.40;0.10;;;10.10;99.90;;;;;;5111449;28;20745;-46
2023/04/01 09:01:26;;;;;;;0.40;0.10;;;10.10;99.90;;;;;;5063791;28;20773;-48
2023/04/01 09:04:16;;;;;;;0.40;0.10;;;10.10;99.90;;;;;;5096684;28;20879;-51
2023/04/01 09:06:52;;;;;;;0.30;0.10;;;10.00;99.90;;;;;;5108924;28;20868;-48
2023/04/01 09:09:55;;;;;;;0.73;0.20;;;10.10;99.90;;;;;;5112701;28;20432;-47
2023/04/01 09:12:45;;;;;;;0.47;0.15;;;10.10;99.90;;;;;;5067755;28;20440;-46
2023/04/01 09:15:33;;;;;;;0.40;0.10;;;10.30;99.90;;;;;;5105488;28;20784;-48
2023/04/01 09:18:30;;;;;;;0.43;0.10;;;10.40;99.90;;;;;;5106378;28;20831;-51
2023/04/01 09:21:19;;;;;;;0.50;0.10;;;10.50;99.90;;;;;;5106695;28;20428;-52
2023/04/01 09:24:14;;;;;;;0.50;0.20;;;10.70;99.90;;;;;;5116392;28;20434;-52
2023/04/01 09:26:58;;;;;;;0.35;0.10;;;10.70;99.90;;;;;;5116680;28;20724;-52
2023/04/01 09:29:53;;;;;;;0.40;0.10;;;10.80;99.90;;;;;;5105023;28;20432;-51
2023/04/01 09:32:49;;;;;;;0.60;0.10;;;10.90;99.90;;;;;;5057868;28;20553;-52
2023/04/01 09:35:23;;;;;;;0.40;0.20;;;11.10;99.90;;;;;;5116332;28;20449;-47
2023/04/01 09:38:04;;;;;;;0.30;0.10;;;11.10;99.90;;;;;;5111985;28;20583;-50
2023/04/01 09:40:43;;;;;;;0.40;0.10;;;11.10;99.90;;;;;;5102724;28;20428;-53
2023/04/01 09:43:28;;;;;;;0.30;0.10;;;11.10;99.90;;;;;;5094716;28;20535;-50
2023/04/01 09:46:17;;;;;;;0.30;0.10;;;11.00;99.90;;;;;;5096202;28;21065;-49
2023/04/01 09:49:33;;;;;;;0.80;0.10;;;10.80;99.90;;;;;;5101719;28;20426;-50
2023/04/01 09:52:10;;;;;;;0.32;0.10;;;10.90;99.90;;;;;;5059328;28;20436;-50
2023/04/01 09:54:56;;;;;;;0.30;0.10;;;11.10;99.90;;;;;;5095256;28;20425;-53
2023/04/01 09:57:58;;;;;;;0.50;0.10;;;11.10;99.90;;;;;;5098148;28;20441;-50
2023/04/01 10:01:02;;;;;;;0.30;0.10;;;11.20;99.90;;;;;;5098812;28;20854;-51
2023/04/01 10:04:10;;;;;;;0.40;0.10;;;11.00;99.90;;;;;;5102008;28;20424;-51
2023/04/01 10:07:02;;;;;;;0.40;0.10;;;11.00;99.90;;;;;;5100149;28;20428;-51
2023/04/01 10:10:15;;;;;;;0.30;0.10;;;11.00;99.90;;;;;;5097105;28;20432;-52
2023/04/01 10:13:27;;;;;;;0.38;0.10;;;11.00;99.90;;;;;;5112682;28;20483;-51
2023/04/01 10:16:23;;;;;;;0.40;0.10;;;11.00;99.90;;;;;;5094374;28;20433;-54
2023/04/01 10:19:12;;;;;;;0.40;0.10;;;11.10;99.90;;;;;;5108419;28;20451;-54
2023/04/01 10:22:01;;;;;;;0.30;0.10;;;11.20;99.90;;;;;;5102172;28;20432;-49
2023/04/01 10:24:51;;;;;;;0.30;0.10;;;11.30;99.90;;;;;;5114842;28;20735;-50
2023/04/01 10:27:42;;;;;;;0.30;0.10;;;11.40;99.90;;;;;;5107376;28;20526;-49
2023/04/01 10:30:45;;;;;;;0.30;0.10;;;11.50;99.90;;;;;;5107013;28;20435;-53
2023/04/01 10:33:39;;;;;;;0.40;0.10;;;11.70;99.90;;;;;;5070123;28;20445;-50
2023/04/01 10:36:41;;;;;;;0.30;0.10;;;11.80;99.90;;;;;;5097224;28;20425;-49
2023/04/01 10:39:35;;;;;;;0.40;0.10;;;11.90;99.90;;;;;;5101583;28;20432;-51
2023/04/01 10:42:23;;;;;;;0.40;0.10;;;12.00;99.90;;;;;;5092007;28;20930;-53
2023/04/01 10:45:22;;;;;;;0.40;0.20;;;12.00;99.90;;;;;;5091228;28;20425;-50
2023/04/01 10:48:17;;;;;;;0.40;0.10;;;12.10;99.90;;;;;;5098119;28;20872;-49
2023/04/01 10:51:13;;;;;;;0.60;0.20;;;12.20;99.90;;;;;;5094148;28;21112;-51
2023/04/01 10:54:04;;;;;;;0.73;0.10;;;12.10;99.90;;;;;;5093934;28;20461;-49
2023/04/01 10:56:48;;;;;;;0.30;0.10;;;11.90;99.90;;;;;;5091899;28;20491;-48
2023/04/01 11:00:00;;;;;;;0.38;0.10;;;11.70;99.90;;;;;;5099894;28;20564;-48
2023/04/01 11:03:11;;;;;;;0.30;0.10;;;11.50;99.90;;;;;;5099999;28;20895;-51
2023/04/01 11:06:27;;;;;;;0.30;0.10;;;11.50;99.90;;;;;;5090475;28;20440;-49
2023/04/01 11:09:43;;;;;;;0.30;0.10;;;11.70;99.90;;;;;;5094147;28;20833;-51
2023/04/01 11:12:46;;;;;;;0.30;0.10;;;11.80;99.90;;;;;;5101069;28;20428;-49
2023/04/01 11:16:01;;;;;;;0.30;0.10;;;11.90;99.90;;;;;;5093701;28;20421;-51
2023/04/01 11:18:59;;;;;;;0.30;0.10;;;12.10;99.90;;;;;;5094514;28;20416;-48
2023/04/01 11:22:00;;;;;;;0.30;0.10;;;12.10;99.90;;;;;;5091464;28;20729;-49
2023/04/01 11:25:08;;;;;;;0.40;0.10;;;12.10;99.90;;;;;;5092817;28;20480;-53
2023/04/01 11:27:49;;;;;;;0.70;0.10;;;12.30;99.90;;;;;;5088034;28;20732;-53
2023/04/01 11:30:37;;;;;;;0.40;0.10;;;12.70;99.90;;;;;;5091848;28;20449;-51
2023/04/01 11:33:08;;;;;;;0.30;0.10;;;12.90;99.90;;;;;;5089974;28;20725;-52
2023/04/01 11:35:53;;;;;;;0.50;0.10;;;13.10;99.90;;;;;;5093081;28;20430;-50
2023/04/01 11:38:30;;;;;;;0.30;0.10;;;13.20;99.90;;;;;;5095143;28;20439;-51
2023/04/01 11:41:08;;;;;;;0.30;0.10;;;13.20;99.90;;;;;;5111456;28;20727;-51
2023/04/01 11:43:40;;;;;;;0.30;0.10;;;13.00;99.90;;;;;;5092867;28;20429;-49
2023/04/01 11:46:12;;;;;;;0.40;0.10;;;13.00;99.90;;;;;;5091876;28;20422;-53
2023/04/01 11:48:55;;;;;;;0.30;0.10;;;12.90;99.90;;;;;;5105411;28;20431;-52
2023/04/01 11:51:44;;;;;;;0.30;0.10;;;12.90;99.90;;;;;;5112380;28;20844;-51
2023/04/01 11:54:29;;;;;;;0.40;0.10;;;12.90;99.90;;;;;;5111210;28;20422;-53
2023/04/01 11:57:22;;;;;;;0.30;0.10;;;12.90;99.90;;;;;;5112918;28;20798;-51
2023/04/01 12:00:15;;;;;;;0.30;0.10;;;12.80;99.90;;;;;;5094834;28;20440;-51
2023/04/01 12:02:56;;;;;;;0.30;0.10;;;12.60;99.90;;;;;;5090407;28;20440;-54
2023/04/01 12:05:40;;;;;;;0.90;0.43;;;12.20;99.90;;;;;;5093132;28;20790;-58
2023/04/01 12:08:25;;;;;;;0.40;0.10;;;12.30;99.90;;;;;;5090618;28;20441;-57
2023/04/01 12:11:01;;;;;;;0.35;0.10;;;12.50;99.90;;;;;;5095078;28;21042;-54
2023/04/01 12:13:42;;;;;;;0.30;0.10;;;12.40;99.90;;;;;;5098792;28;20426;-56
2023/04/01 12:16:40;;;;;;;0.30;0.10;;;12.40;99.90;;;;;;5099925;28;20474;-58
2023/04/01 12:19:21;;;;;;;0.80;0.10;;;12.40;99.90;;;;;;5090592;28;20723;-57
2023/04/01 12:21:59;;;;;;;0.30;0.10;;;12.40;99.90;;;;;;5099025;28;20432;-56
2023/04/01 12:24:54;;;;;;;0.30;0.10;;;12.40;99.90;;;;;;5091804;28;20434;-58
2023/04/01 12:27:40;;;;;;;0.50;0.10;;;12.20;99.90;;;;;;5076086;28;20862;-59
2023/04/01 12:30:30;;;;;;;0.30;0.10;;;12.20;99.90;;;;;;5107239;28;20431;-58
2023/04/01 12:33:08;;;;;;;0.30;0.10;;;12.20;99.90;;;;;;5089451;28;20430;-59
2023/04/01 12:35:49;;;;;;;0.30;0.10;;;12.30;99.90;;;;;;5101090;28;20859;-58
2023/04/01 12:38:28;;;;;;;0.43;0.10;;;12.40;99.90;;;;;;5113366;28;20423;-58
2023/04/01 12:41:09;;;;;;;0.30;0.10;;;12.60;99.90;;;;;;5107807;28;20863;-60
2023/04/01 12:43:59;;;;;;;0.30;0.10;;;12.90;99.90;;;;;;5110550;28;20911;-59
2023/04/01 12:46:32;;;;;;;0.30;0.10;;;12.90;99.90;;;;;;5104918;28;20432;-58
2023/04/01 12:49:34;;;;;;;0.30;0.10;;;13.20;99.90;;;;;;5110601;28;20447;-58
2023/04/01 12:52:12;;;;;;;1.40;0.10;;;13.40;99.90;;;;;;5059558;28;20519;-57
2023/04/01 12:55:20;;;;;;;0.30;0.10;;;13.40;99.90;;;;;;5104880;28;20427;-58
2023/04/01 12:58:24;;;;;;;0.30;0.10;;;13.30;99.90;;;;;;5086554;28;20436;-56
2023/04/01 13:01:11;;;;;;;0.30;0.10;;;13.40;99.90;;;;;;5064686;28;20422;-58
2023/04/01 13:03:54;;;;;;;0.30;0.10;;;13.30;99.90;;;;;;5091401;28;20456;-58
2023/04/01 13:06:34;;;;;;;0.30;0.10;;;13.10;99.90;;;;;;5101399;28;20493;-59
2023/04/01 13:09:18;;;;;;;0.30;0.10;;;13.00;99.90;;;;;;5116842;28;20435;-57
2023/04/01 13:12:03;;;;;;;0.30;0.10;;;12.70;99.90;;;;;;5117701;28;20832;-58
2023/04/01 13:14:56;;;;;;;1.00;0.10;;;12.80;99.90;;;;;;5115171;28;20450;-58
2023/04/01 13:17:31;;;;;;;0.30;0.10;;;12.90;99.90;;;;;;5112636;28;20739;-57
2023/04/01 13:20:04;;;;;;;0.30;0.10;;;13.10;99.90;;;;;;5117004;28;20426;-57
2023/04/01 13:22:42;;;;;;;0.90;0.10;;;13.00;99.90;;;;;;5115592;28;20424;-57
2023/04/01 13:25:22;;;;;;;0.30;0.10;;;12.70;99.90;;;;;;5108694;28;20525;-56
2023/04/01 13:27:52;;;;;;;0.30;0.10;;;12.80;99.90;;;;;;5102551;28;20430;-57
2023/04/01 13:30:28;;;;;;;0.50;0.20;;;12.80;99.90;;;;;;5095715;28;20864;-57
2023/04/01 13:33:03;;;;;;;0.30;0.10;;;12.70;99.90;;;;;;5094545;28;20492;-57
2023/04/01 13:35:44;;;;;;;0.30;0.10;;;12.70;99.90;;;;;;5106576;28;20495;-52
2023/04/01 13:38:58;;;;;;;1.75;0.70;;;12.70;99.90;;;;;;5110854;28;20447;-50
2023/04/01 13:41:35;;;;;;;0.40;0.10;;;12.70;99.90;;;;;;5049806;28;20521;-50
2023/04/01 13:44:12;;;;;;;0.90;0.10;;;12.60;99.90;;;;;;5104968;28;20622;-51
2023/04/01 13:47:10;;;;;;;0.30;0.10;;;12.80;99.90;;;;;;5115267;28;20885;-53